Time;durP1;ratioP1;P1;durP2;ratioP2;P2;SDS_P1;SDS_P2;PMS_P1;PMS_P2;Temp;Humidity;BMP_temperature;BMP_pressure;BME280_temperature;BME280_humidity;BME280_pressure;Samples;Min_cycle;Max_cycle;Signal;HPM_P1;HPM_P2
2023/06/22 00:00:57;;;;;;;9.63;6.95;;;20.90;99.90;;;;;;4970195;28;20584;-90
2023/06/22 00:03:24;;;;;;;10.90;6.60;;;20.90;99.90;;;;;;4955255;29;20206;-89
2023/06/22 00:05:50;;;;;;;8.57;5.93;;;20.90;99.90;;;;;;4970201;28;20605;-89
2023/06/22 00:08:16;;;;;;;9.30;6.47;;;20.80;99.90;;;;;;4969982;28;20266;-89
2023/06/22 00:10:43;;;;;;;10.20;6.30;;;20.80;99.90;;;;;;4955479;29;20187;-89
2023/06/22 00:13:09;;;;;;;11.75;6.80;;;20.80;99.90;;;;;;4954819;29;20285;-89
2023/06/22 00:15:38;;;;;;;11.07;7.65;;;20.80;99.90;;;;;;4955254;29;20179;-89
2023/06/22 00:18:04;;;;;;;11.15;7.05;;;20.80;99.90;;;;;;4955117;29;20182;-86
2023/06/22 00:20:30;;;;;;;9.35;7.05;;;20.80;99.90;;;;;;4970239;28;20183;-87
2023/06/22 00:22:57;;;;;;;11.35;7.13;;;20.80;99.90;;;;;;4970853;28;20188;-87
2023/06/22 00:25:23;;;;;;;14.80;6.82;;;20.80;99.90;;;;;;4955491;29;20190;-87
2023/06/22 00:27:49;;;;;;;9.45;6.80;;;20.80;99.90;;;;;;4955797;29;20616;-88
2023/06/22 00:30:18;;;;;;;9.23;6.32;;;20.80;99.90;;;;;;4956691;28;20183;-88
2023/06/22 00:32:45;;;;;;;12.25;7.38;;;20.80;99.90;;;;;;4958885;29;20203;-88
2023/06/22 00:35:12;;;;;;;9.77;7.15;;;20.80;99.90;;;;;;4970772;28;20167;-85
2023/06/22 00:37:41;;;;;;;9.13;6.78;;;20.70;99.90;;;;;;4978964;28;20247;-88
2023/06/22 00:40:11;;;;;;;11.75;7.15;;;20.70;99.90;;;;;;4964280;29;20190;-88
2023/06/22 00:42:38;;;;;;;10.77;6.85;;;20.80;99.90;;;;;;4955526;29;20179;-87
2023/06/22 00:45:05;;;;;;;11.13;6.90;;;20.80;99.90;;;;;;4955149;29;20179;-87
2023/06/22 00:47:31;;;;;;;10.38;7.03;;;20.80;99.90;;;;;;4954767;29;20181;-87
2023/06/22 00:49:57;;;;;;;10.95;7.30;;;20.80;99.90;;;;;;4969747;28;20175;-89
2023/06/22 00:52:29;;;;;;;10.13;7.18;;;20.70;99.90;;;;;;4954673;29;20207;-88
2023/06/22 00:54:56;;;;;;;10.05;7.28;;;20.70;99.90;;;;;;4955087;29;20203;-89
2023/06/22 00:57:27;;;;;;;13.77;7.82;;;20.70;99.90;;;;;;4953378;29;20629;-89
2023/06/22 00:59:54;;;;;;;9.98;6.85;;;20.70;99.90;;;;;;4969479;28;20178;-89
2023/06/22 01:02:20;;;;;;;13.15;7.95;;;20.70;99.90;;;;;;4954318;29;20183;-89
2023/06/22 01:04:46;;;;;;;13.40;8.00;;;20.60;99.90;;;;;;4954619;29;20179;-88
2023/06/22 01:07:31;;;;;;;12.95;7.60;;;20.50;99.90;;;;;;4977004;28;20714;-89
2023/06/22 01:10:08;;;;;;;11.50;7.30;;;20.50;99.90;;;;;;4954907;28;20167;-89
2023/06/22 01:12:55;;;;;;;9.15;7.05;;;20.40;99.90;;;;;;4954577;28;20269;-88
2023/06/22 01:15:29;;;;;;;9.02;6.75;;;20.40;99.90;;;;;;4954842;28;20164;-88
2023/06/22 01:17:58;;;;;;;10.52;6.95;;;20.40;99.90;;;;;;4954698;28;20159;-89
2023/06/22 01:20:27;;;;;;;10.95;7.03;;;20.40;99.90;;;;;;4954364;28;20625;-89
2023/06/22 01:23:07;;;;;;;11.10;7.10;;;20.30;99.90;;;;;;4954401;29;20194;-89
2023/06/22 01:26:11;;;;;;;9.25;6.75;;;20.20;99.90;;;;;;4985525;28;20551;-89
2023/06/22 01:28:52;;;;;;;11.23;7.00;;;20.20;99.90;;;;;;4954926;29;20167;-89
2023/06/22 01:31:21;;;;;;;11.35;7.10;;;20.20;99.90;;;;;;4954448;28;20175;-89
2023/06/22 01:33:52;;;;;;;13.00;7.25;;;20.20;99.90;;;;;;4954601;28;20302;-89
2023/06/22 01:36:19;;;;;;;11.77;8.02;;;20.10;99.90;;;;;;4954181;28;20231;-89
2023/06/22 01:38:47;;;;;;;12.73;7.45;;;20.10;99.90;;;;;;4954608;28;20207;-89
2023/06/22 01:41:13;;;;;;;10.63;7.28;;;20.10;99.90;;;;;;4954588;28;20171;-89
2023/06/22 01:43:39;;;;;;;12.82;7.05;;;20.00;99.90;;;;;;4956955;28;20191;-89
2023/06/22 01:46:05;;;;;;;11.32;7.57;;;20.00;99.90;;;;;;4988982;28;20230;-89
2023/06/22 01:48:32;;;;;;;11.40;7.47;;;20.00;99.90;;;;;;4957929;28;20193;-89
2023/06/22 01:50:58;;;;;;;13.30;8.55;;;20.00;99.90;;;;;;4988747;28;20183;-88
2023/06/22 01:53:24;;;;;;;15.20;7.70;;;19.90;99.90;;;;;;4988314;28;20211;-88
2023/06/22 01:55:50;;;;;;;9.88;6.93;;;19.80;99.90;;;;;;4957781;28;20176;-89
2023/06/22 01:58:16;;;;;;;10.10;7.15;;;19.80;99.90;;;;;;4957519;29;20186;-89
2023/06/22 02:00:49;;;;;;;13.68;8.05;;;19.80;99.90;;;;;;4988749;28;20210;-89
2023/06/22 02:03:25;;;;;;;18.15;7.82;;;19.70;99.90;;;;;;4956666;29;20522;-89
2023/06/22 02:05:58;;;;;;;11.35;7.68;;;19.70;99.90;;;;;;4957985;28;20174;-88
2023/06/22 02:08:30;;;;;;;15.32;7.95;;;19.60;99.90;;;;;;4957454;29;20163;-88
2023/06/22 02:10:57;;;;;;;12.27;8.38;;;19.60;99.90;;;;;;4957641;29;20168;-88
2023/06/22 02:13:24;;;;;;;12.13;7.75;;;19.60;99.90;;;;;;4957214;29;20564;-88
2023/06/22 02:15:50;;;;;;;10.18;7.57;;;19.60;99.90;;;;;;4957545;29;20182;-88
2023/06/22 02:18:16;;;;;;;10.55;8.18;;;19.60;99.90;;;;;;4957648;29;20182;-88
2023/06/22 02:20:42;;;;;;;12.18;7.82;;;19.60;99.90;;;;;;4957574;29;20183;-88
2023/06/22 02:23:09;;;;;;;10.60;7.28;;;19.50;99.90;;;;;;4959500;29;20183;-88
2023/06/22 02:25:35;;;;;;;12.68;8.02;;;19.60;99.90;;;;;;4960354;29;20175;-88
2023/06/22 02:28:01;;;;;;;12.60;7.90;;;19.60;99.90;;;;;;4981582;28;20159;-87
2023/06/22 02:30:26;;;;;;;12.80;7.93;;;19.60;99.90;;;;;;4976973;28;20179;-89
2023/06/22 02:32:58;;;;;;;11.40;7.97;;;19.60;99.90;;;;;;4940030;29;20222;-88
2023/06/22 02:35:26;;;;;;;12.75;8.02;;;19.50;99.90;;;;;;4939873;29;20558;-87
2023/06/22 02:37:51;;;;;;;13.32;7.93;;;19.50;99.90;;;;;;4957696;29;20207;-88
2023/06/22 02:40:17;;;;;;;13.38;7.80;;;19.50;99.90;;;;;;4957145;29;20183;-89
2023/06/22 02:42:43;;;;;;;9.93;7.53;;;19.50;99.90;;;;;;4971756;28;20195;-89
2023/06/22 02:45:09;;;;;;;12.02;8.38;;;19.50;99.90;;;;;;4956079;29;20187;-89
2023/06/22 02:47:35;;;;;;;11.13;7.60;;;19.50;99.90;;;;;;4939477;29;20185;-88
2023/06/22 02:50:01;;;;;;;12.63;8.77;;;19.50;99.90;;;;;;4956851;29;20262;-89
2023/06/22 02:52:26;;;;;;;11.38;7.85;;;19.50;99.90;;;;;;4956439;29;20242;-88
2023/06/22 02:54:52;;;;;;;13.38;8.30;;;19.50;99.90;;;;;;4971607;28;20219;-88
2023/06/22 02:57:18;;;;;;;10.82;7.82;;;19.50;99.90;;;;;;4955181;29;20187;-88
2023/06/22 02:59:43;;;;;;;15.60;8.25;;;19.50;99.90;;;;;;4956434;29;20187;-89
2023/06/22 03:02:09;;;;;;;13.35;8.43;;;19.50;99.90;;;;;;4956546;29;20232;-89
2023/06/22 03:04:35;;;;;;;12.32;8.32;;;19.50;99.90;;;;;;4971340;28;20183;-89
2023/06/22 03:07:01;;;;;;;12.73;8.88;;;19.60;99.90;;;;;;4956564;29;20231;-89
2023/06/22 03:09:28;;;;;;;13.10;8.02;;;19.60;99.90;;;;;;4954934;29;20175;-86
2023/06/22 03:11:54;;;;;;;13.43;8.38;;;19.60;99.90;;;;;;4956623;29;20628;-89
2023/06/22 03:14:20;;;;;;;14.88;8.38;;;19.60;99.90;;;;;;4971365;28;20234;-89
2023/06/22 03:16:46;;;;;;;10.68;8.10;;;19.60;99.90;;;;;;4956044;29;20242;-88
2023/06/22 03:19:12;;;;;;;14.85;9.13;;;19.60;99.90;;;;;;4956412;29;20539;-90
2023/06/22 03:21:41;;;;;;;12.77;8.60;;;19.60;99.90;;;;;;4971295;28;20555;-88
2023/06/22 03:24:07;;;;;;;13.20;7.95;;;19.60;99.90;;;;;;4970671;28;20179;-89
2023/06/22 03:26:33;;;;;;;13.98;8.30;;;19.60;99.90;;;;;;4955965;29;20241;-88
2023/06/22 03:28:58;;;;;;;13.15;9.05;;;19.60;99.90;;;;;;4971204;28;20604;-88
2023/06/22 03:31:24;;;;;;;12.75;8.73;;;19.60;99.90;;;;;;4956186;29;20596;-90
2023/06/22 03:33:50;;;;;;;12.32;7.93;;;19.70;99.90;;;;;;4955506;29;20346;-89
2023/06/22 03:36:20;;;;;;;12.20;8.23;;;19.70;99.90;;;;;;4971052;28;20547;-90
2023/06/22 03:38:46;;;;;;;14.90;7.82;;;19.70;99.90;;;;;;4954591;29;20188;-89
2023/06/22 03:41:12;;;;;;;15.07;8.45;;;19.80;99.90;;;;;;4956019;29;20193;-89
2023/06/22 03:43:38;;;;;;;17.73;9.95;;;19.90;99.90;;;;;;4970816;28;20179;-88
2023/06/22 03:46:04;;;;;;;14.75;8.77;;;19.90;99.90;;;;;;4955691;29;20649;-88
2023/06/22 03:48:29;;;;;;;13.05;8.55;;;20.00;99.90;;;;;;4955191;29;20186;-89
2023/06/22 03:50:55;;;;;;;13.82;8.80;;;20.00;99.90;;;;;;4953879;29;20645;-89
2023/06/22 03:53:21;;;;;;;12.90;8.98;;;20.10;99.90;;;;;;4954792;29;20214;-89
2023/06/22 03:55:52;;;;;;;18.00;9.45;;;20.00;99.90;;;;;;4954899;29;20250;-89
2023/06/22 03:58:20;;;;;;;14.68;8.50;;;20.10;99.90;;;;;;4955071;29;20168;-88
2023/06/22 04:00:50;;;;;;;22.05;9.75;;;20.00;99.90;;;;;;4954708;29;20278;-88
2023/06/22 04:03:18;;;;;;;13.32;8.32;;;19.90;99.90;;;;;;4954954;29;20183;-87
2023/06/22 04:05:44;;;;;;;14.18;8.75;;;19.90;99.90;;;;;;4954071;28;20183;-88
2023/06/22 04:08:10;;;;;;;14.20;8.45;;;19.90;99.90;;;;;;4954437;28;20245;-86
2023/06/22 04:10:36;;;;;;;12.48;8.98;;;19.90;99.90;;;;;;4954920;29;20570;-85
2023/06/22 04:13:02;;;;;;;12.45;8.43;;;19.90;99.90;;;;;;4956990;29;20221;-86
2023/06/22 04:15:27;;;;;;;13.15;9.05;;;20.00;99.90;;;;;;4957109;29;20179;-85
2023/06/22 04:17:55;;;;;;;16.42;9.18;;;20.10;99.90;;;;;;4957493;29;20194;-87
2023/06/22 04:20:21;;;;;;;12.93;9.13;;;20.10;99.90;;;;;;4956235;29;20214;-86
2023/06/22 04:22:46;;;;;;;14.45;9.48;;;20.20;99.90;;;;;;4937156;29;20199;-87
2023/06/22 04:25:12;;;;;;;12.10;8.50;;;20.30;99.90;;;;;;4954818;29;20171;-86
2023/06/22 04:27:40;;;;;;;17.27;9.20;;;20.30;99.90;;;;;;4954414;29;20187;-85
2023/06/22 04:30:07;;;;;;;14.82;9.60;;;20.30;99.90;;;;;;4954446;29;20294;-84
2023/06/22 04:32:36;;;;;;;13.30;8.70;;;20.30;99.90;;;;;;4951959;29;20688;-89
2023/06/22 04:35:04;;;;;;;13.27;9.05;;;20.30;99.90;;;;;;4952921;29;20205;-85
2023/06/22 04:37:30;;;;;;;17.33;9.88;;;20.30;99.90;;;;;;4952976;28;20553;-89
2023/06/22 04:39:56;;;;;;;19.67;9.77;;;20.40;99.90;;;;;;4967925;28;20184;-85
2023/06/22 04:42:21;;;;;;;16.65;10.18;;;20.50;99.90;;;;;;4953146;28;20191;-88
2023/06/22 04:44:47;;;;;;;17.65;9.50;;;20.50;99.90;;;;;;4953520;28;20330;-86
2023/06/22 04:47:13;;;;;;;17.60;10.43;;;20.60;99.90;;;;;;4968568;28;20590;-86
2023/06/22 04:49:40;;;;;;;18.83;9.90;;;20.60;99.90;;;;;;4953285;29;20202;-86
2023/06/22 04:52:08;;;;;;;16.67;9.75;;;20.70;99.90;;;;;;4967572;28;20202;-87
2023/06/22 04:54:35;;;;;;;16.92;9.98;;;20.60;99.90;;;;;;4981641;28;20202;-86
2023/06/22 04:57:02;;;;;;;16.00;9.52;;;20.70;99.90;;;;;;4953356;28;20270;-87
2023/06/22 04:59:29;;;;;;;16.67;10.20;;;20.70;99.90;;;;;;4953385;28;20222;-88
2023/06/22 05:02:02;;;;;;;22.95;10.20;;;20.80;99.90;;;;;;4935349;29;20233;-88
2023/06/22 05:04:32;;;;;;;15.55;10.05;;;20.90;99.90;;;;;;4953266;28;20183;-88
2023/06/22 05:07:00;;;;;;;16.70;9.20;;;20.80;99.90;;;;;;4952885;28;20755;-88
2023/06/22 05:09:25;;;;;;;24.10;11.45;;;20.80;99.90;;;;;;4953766;29;20198;-87
2023/06/22 05:11:51;;;;;;;17.95;10.07;;;20.90;99.90;;;;;;4952782;29;20191;-88
2023/06/22 05:14:18;;;;;;;17.70;9.10;;;20.90;99.90;;;;;;4953436;29;20289;-87
2023/06/22 05:16:44;;;;;;;15.18;10.00;;;20.90;99.90;;;;;;4953374;28;20230;-87
2023/06/22 05:19:10;;;;;;;22.10;11.77;;;21.00;99.90;;;;;;4957458;29;20231;-87
2023/06/22 05:21:36;;;;;;;19.77;9.77;;;21.00;99.90;;;;;;4970659;28;20199;-87
2023/06/22 05:24:02;;;;;;;14.68;9.57;;;21.00;99.90;;;;;;4981284;28;20179;-93
2023/06/22 05:26:32;;;;;;;20.08;9.80;;;21.00;99.90;;;;;;4981412;28;20183;-90
2023/06/22 05:28:58;;;;;;;17.33;9.70;;;21.00;99.90;;;;;;4974926;28;20183;-91
2023/06/22 05:31:24;;;;;;;13.75;9.43;;;21.10;99.90;;;;;;4958473;28;20187;-91
2023/06/22 05:33:52;;;;;;;15.35;9.95;;;21.10;99.90;;;;;;4957982;28;20246;-91
2023/06/22 05:36:21;;;;;;;14.55;9.32;;;21.10;99.90;;;;;;4957988;29;20198;-90
2023/06/22 05:38:47;;;;;;;14.10;9.52;;;21.10;99.90;;;;;;4957208;28;20400;-92
2023/06/22 05:41:13;;;;;;;15.02;9.60;;;21.10;99.90;;;;;;4956718;29;20195;-90
2023/06/22 05:43:40;;;;;;;16.98;11.18;;;21.10;99.90;;;;;;4972759;28;20234;-90
2023/06/22 05:46:05;;;;;;;15.02;10.27;;;21.10;99.90;;;;;;4939601;29;20199;-91
2023/06/22 05:48:31;;;;;;;19.40;10.95;;;21.10;99.90;;;;;;4971741;28;20526;-90
2023/06/22 05:50:57;;;;;;;21.90;11.18;;;21.10;99.90;;;;;;4939963;28;20203;-89
2023/06/22 05:53:23;;;;;;;16.38;10.52;;;21.20;99.90;;;;;;4956298;29;20215;-90
2023/06/22 05:55:49;;;;;;;16.70;10.95;;;21.30;99.90;;;;;;4971292;28;20197;-91
2023/06/22 05:58:15;;;;;;;17.30;9.55;;;21.30;99.90;;;;;;4956042;29;20187;-90
2023/06/22 06:00:42;;;;;;;14.70;9.43;;;21.40;99.90;;;;;;4956816;29;20191;-90
2023/06/22 06:03:09;;;;;;;21.35;9.65;;;21.50;99.90;;;;;;4953253;28;20175;-89
2023/06/22 06:05:35;;;;;;;14.90;9.65;;;21.70;99.90;;;;;;4940751;29;20215;-93
2023/06/22 06:08:02;;;;;;;17.38;9.88;;;21.70;99.90;;;;;;4943249;29;20697;-93
2023/06/22 06:10:32;;;;;;;16.73;9.05;;;21.70;99.90;;;;;;4980313;28;20179;-91
2023/06/22 06:12:58;;;;;;;13.43;9.00;;;21.70;99.90;;;;;;4989942;28;20222;-90
2023/06/22 06:15:23;;;;;;;13.93;9.27;;;21.80;99.90;;;;;;4977792;28;20175;-93
2023/06/22 06:17:50;;;;;;;15.25;9.90;;;21.80;99.90;;;;;;4966610;28;20722;-93
2023/06/22 06:20:21;;;;;;;16.05;9.38;;;21.90;99.90;;;;;;4968878;28;20265;-92
2023/06/22 06:22:47;;;;;;;15.93;9.48;;;22.00;99.90;;;;;;4967423;28;20167;-94
2023/06/22 06:25:16;;;;;;;17.17;9.35;;;22.10;99.90;;;;;;4968272;28;20241;-93
2023/06/22 06:27:49;;;;;;;12.25;8.98;;;22.10;99.90;;;;;;4970297;28;20179;-92
2023/06/22 06:30:16;;;;;;;20.52;10.43;;;22.20;99.90;;;;;;4977082;28;20171;-92
2023/06/22 06:32:42;;;;;;;14.80;9.68;;;22.20;99.90;;;;;;4975205;28;20207;-92
2023/06/22 06:35:09;;;;;;;14.93;9.85;;;22.20;99.90;;;;;;4977128;28;20205;-91
2023/06/22 06:37:39;;;;;;;16.67;10.05;;;22.20;99.90;;;;;;4975497;28;20174;-94
2023/06/22 06:40:10;;;;;;;14.10;9.55;;;22.20;99.90;;;;;;4975315;28;20210;-91
2023/06/22 06:42:54;;;;;;;16.10;9.55;;;22.30;99.90;;;;;;4960998;28;20660;-90
2023/06/22 06:45:24;;;;;;;13.88;9.20;;;22.40;99.90;;;;;;4988197;28;20238;-91
2023/06/22 06:47:51;;;;;;;15.00;10.38;;;22.60;99.90;;;;;;4972438;28;20187;-91
2023/06/22 06:50:17;;;;;;;14.98;9.98;;;22.70;99.90;;;;;;4955777;29;20594;-88
2023/06/22 06:52:43;;;;;;;16.10;10.07;;;22.90;99.90;;;;;;4957034;28;20287;-88
2023/06/22 06:55:13;;;;;;;13.60;9.60;;;22.90;99.90;;;;;;4992126;28;20592;-88
2023/06/22 06:57:39;;;;;;;14.05;9.85;;;23.00;99.90;;;;;;4971451;28;20172;-88
2023/06/22 07:00:11;;;;;;;15.60;9.43;;;23.20;99.90;;;;;;4965701;28;20179;-89
2023/06/22 07:02:42;;;;;;;12.50;9.18;;;23.40;99.90;;;;;;4987332;28;20174;-90
2023/06/22 07:05:09;;;;;;;14.32;9.85;;;23.60;99.90;;;;;;4957260;28;20183;-90
2023/06/22 07:07:35;;;;;;;13.05;9.27;;;23.70;99.90;;;;;;4987902;28;20235;-90
2023/06/22 07:10:00;;;;;;;10.77;8.27;;;23.90;99.90;;;;;;4987914;28;20179;-88
2023/06/22 07:12:26;;;;;;;12.27;8.18;;;24.00;99.90;;;;;;4987573;28;20184;-90
2023/06/22 07:14:52;;;;;;;14.45;8.73;;;24.20;99.90;;;;;;4956543;29;20534;-90
2023/06/22 07:17:18;;;;;;;12.32;8.93;;;24.20;99.90;;;;;;4971052;28;20191;-90
2023/06/22 07:19:44;;;;;;;11.73;8.50;;;24.20;99.90;;;;;;4956686;29;20186;-90
2023/06/22 07:22:09;;;;;;;12.38;8.45;;;24.20;99.90;;;;;;4953150;29;20237;-89
2023/06/22 07:24:35;;;;;;;14.45;9.52;;;24.40;99.90;;;;;;4946149;28;20187;-89
2023/06/22 07:27:02;;;;;;;13.65;8.77;;;24.50;99.90;;;;;;4983628;28;20187;-88
2023/06/22 07:29:27;;;;;;;15.07;9.45;;;24.60;99.90;;;;;;4957079;29;20184;-90
2023/06/22 07:31:54;;;;;;;13.30;8.63;;;24.70;99.90;;;;;;4955895;28;20266;-88
2023/06/22 07:34:21;;;;;;;16.38;9.95;;;24.80;99.90;;;;;;4962884;28;20222;-89
2023/06/22 07:36:47;;;;;;;14.45;9.40;;;24.70;99.90;;;;;;4936927;29;20180;-89
2023/06/22 07:39:13;;;;;;;13.02;9.25;;;24.70;99.90;;;;;;4955753;28;20214;-89
2023/06/22 07:41:43;;;;;;;15.55;10.35;;;24.40;99.90;;;;;;4955458;28;20203;-88
2023/06/22 07:44:08;;;;;;;13.77;9.13;;;24.30;99.90;;;;;;4946059;29;20643;-88
2023/06/22 07:46:34;;;;;;;14.73;10.63;;;24.40;99.90;;;;;;4954623;28;20183;-90
2023/06/22 07:49:01;;;;;;;14.93;9.80;;;24.30;99.90;;;;;;4946805;29;20187;-87
2023/06/22 07:51:26;;;;;;;18.27;10.05;;;24.30;99.90;;;;;;4953880;28;20193;-89
2023/06/22 07:53:52;;;;;;;16.50;10.38;;;24.30;99.90;;;;;;4949952;29;21388;-89
2023/06/22 07:56:21;;;;;;;19.58;11.45;;;24.30;99.90;;;;;;4951678;29;20183;-88
2023/06/22 07:58:47;;;;;;;16.23;10.98;;;24.40;99.90;;;;;;4954773;29;20696;-89
2023/06/22 08:01:14;;;;;;;16.38;11.38;;;24.60;99.90;;;;;;4955811;28;20179;-88
2023/06/22 08:03:40;;;;;;;14.70;10.43;;;24.70;99.90;;;;;;4947662;29;20187;-88
2023/06/22 08:06:08;;;;;;;16.90;10.90;;;24.80;99.90;;;;;;4956427;28;20787;-89
2023/06/22 08:08:35;;;;;;;16.83;10.63;;;24.90;99.90;;;;;;4947982;28;20644;-89
2023/06/22 08:11:00;;;;;;;12.57;9.98;;;25.00;99.90;;;;;;4970668;28;20183;-88
2023/06/22 08:13:26;;;;;;;16.08;10.52;;;25.20;99.90;;;;;;4985022;28;20703;-90
2023/06/22 08:15:51;;;;;;;14.23;9.85;;;25.30;99.90;;;;;;4970521;28;20198;-89
2023/06/22 08:18:17;;;;;;;14.02;10.63;;;25.40;99.90;;;;;;4965876;29;20548;-89
2023/06/22 08:20:43;;;;;;;13.82;9.85;;;25.70;99.90;;;;;;4975186;28;20644;-91
2023/06/22 08:23:08;;;;;;;16.15;11.00;;;25.80;99.90;;;;;;4973056;28;20641;-91
2023/06/22 08:25:35;;;;;;;14.60;10.88;;;25.90;99.90;;;;;;4971769;28;20183;-90
2023/06/22 08:28:04;;;;;;;15.93;11.23;;;25.90;99.90;;;;;;4973204;28;20187;-91
2023/06/22 08:30:30;;;;;;;17.60;12.02;;;25.80;99.90;;;;;;4958166;29;20179;-92
2023/06/22 08:32:56;;;;;;;16.38;11.70;;;25.80;99.90;;;;;;4940498;28;20213;-90
2023/06/22 08:35:25;;;;;;;20.27;11.98;;;26.00;99.90;;;;;;4954425;28;20209;-91
2023/06/22 08:37:55;;;;;;;16.08;11.68;;;26.10;99.90;;;;;;4970645;28;20241;-93
2023/06/22 08:40:21;;;;;;;16.77;12.13;;;26.20;99.90;;;;;;4977600;28;20183;-92
2023/06/22 08:42:47;;;;;;;18.80;11.77;;;26.20;99.90;;;;;;4966182;28;20191;-91
2023/06/22 08:45:14;;;;;;;15.65;11.95;;;26.20;99.90;;;;;;4962755;28;20175;-89
2023/06/22 08:47:43;;;;;;;18.23;11.35;;;26.20;99.90;;;;;;4960010;28;20210;-92
2023/06/22 08:50:10;;;;;;;16.88;12.32;;;26.20;99.90;;;;;;4963409;28;20187;-90
2023/06/22 08:52:37;;;;;;;16.55;12.20;;;26.20;99.90;;;;;;4959754;28;20218;-91
2023/06/22 08:55:03;;;;;;;16.38;12.07;;;26.40;99.90;;;;;;4968194;28;20190;-91
2023/06/22 08:57:30;;;;;;;17.10;11.25;;;26.50;99.90;;;;;;4969211;28;20654;-91
2023/06/22 08:59:58;;;;;;;15.88;11.73;;;26.50;99.90;;;;;;4967093;28;20194;-90
2023/06/22 09:02:24;;;;;;;16.17;11.43;;;26.60;99.90;;;;;;4965409;28;20278;-91
2023/06/22 09:04:55;;;;;;;16.80;11.90;;;26.70;99.90;;;;;;4973178;28;20184;-90
2023/06/22 09:07:23;;;;;;;15.70;11.50;;;26.70;99.90;;;;;;4986764;28;20237;-91
2023/06/22 09:09:49;;;;;;;15.65;11.98;;;27.00;99.90;;;;;;4962989;28;20190;-93
2023/06/22 09:12:15;;;;;;;15.43;11.02;;;26.90;99.90;;;;;;4950141;29;20184;-90
2023/06/22 09:14:40;;;;;;;15.32;11.40;;;27.10;99.90;;;;;;4958730;29;20553;-90
2023/06/22 09:17:06;;;;;;;16.90;11.75;;;27.20;99.90;;;;;;4971754;28;20544;-92
2023/06/22 09:19:32;;;;;;;18.73;10.88;;;27.30;99.90;;;;;;4957443;29;20187;-93
2023/06/22 09:21:58;;;;;;;16.45;12.15;;;27.40;99.90;;;;;;4961189;28;20668;-91
2023/06/22 09:24:24;;;;;;;17.23;12.02;;;27.30;99.90;;;;;;4959284;28;20187;-91
2023/06/22 09:26:50;;;;;;;17.55;11.85;;;27.20;99.90;;;;;;4957536;29;20191;-92
2023/06/22 09:29:17;;;;;;;15.32;11.52;;;26.90;99.90;;;;;;4953237;28;20184;-91
2023/06/22 09:31:42;;;;;;;16.75;11.70;;;26.90;99.90;;;;;;4957827;29;20188;-91
2023/06/22 09:34:08;;;;;;;14.57;11.40;;;27.10;99.90;;;;;;4958667;28;20207;-93
2023/06/22 09:36:35;;;;;;;16.35;12.02;;;27.10;99.90;;;;;;4959958;29;20643;-87
2023/06/22 09:39:05;;;;;;;15.23;11.27;;;27.00;99.90;;;;;;4982848;28;20187;-93
2023/06/22 09:41:31;;;;;;;16.27;11.70;;;27.10;99.90;;;;;;4958578;29;20179;-91
2023/06/22 09:43:57;;;;;;;13.77;10.98;;;27.10;99.90;;;;;;4957824;29;20202;-93
2023/06/22 09:46:24;;;;;;;15.32;11.57;;;27.30;99.90;;;;;;4980728;28;20273;-92
2023/06/22 09:48:50;;;;;;;16.27;11.95;;;27.30;99.90;;;;;;4957163;29;20198;-94
2023/06/22 09:51:16;;;;;;;14.43;10.35;;;27.30;99.90;;;;;;4954758;29;20724;-92
2023/06/22 09:53:42;;;;;;;16.25;11.05;;;27.40;99.90;;;;;;4958411;29;20211;-96
2023/06/22 09:56:14;;;;;;;14.32;10.98;;;27.50;99.90;;;;;;4958491;29;20520;-94
2023/06/22 09:58:41;;;;;;;15.68;10.98;;;27.40;99.90;;;;;;4965816;29;20186;-92
2023/06/22 10:01:06;;;;;;;17.10;11.30;;;27.50;99.90;;;;;;4967306;29;20179;-89
2023/06/22 10:03:32;;;;;;;17.38;11.48;;;27.60;99.90;;;;;;4974462;28;20187;-92
2023/06/22 10:05:58;;;;;;;20.02;11.30;;;27.70;99.90;;;;;;4964810;28;20179;-91
2023/06/22 10:08:23;;;;;;;14.98;11.27;;;27.60;99.90;;;;;;4962473;28;20254;-89
2023/06/22 10:10:49;;;;;;;15.70;11.15;;;27.60;99.90;;;;;;4940272;29;20187;-91
2023/06/22 10:13:15;;;;;;;12.88;10.43;;;27.80;99.90;;;;;;4963517;28;20560;-89
2023/06/22 10:15:41;;;;;;;13.95;10.70;;;28.10;99.90;;;;;;4941343;29;20203;-93
2023/06/22 10:18:07;;;;;;;16.70;11.60;;;28.30;99.90;;;;;;4942801;29;20195;-92
2023/06/22 10:20:33;;;;;;;13.57;10.63;;;27.90;99.90;;;;;;4946272;29;20231;-93
2023/06/22 10:22:58;;;;;;;14.98;11.32;;;27.80;99.90;;;;;;4927907;29;20270;-93
2023/06/22 10:25:24;;;;;;;16.52;10.43;;;27.60;99.90;;;;;;4942176;29;20652;-92
2023/06/22 10:27:50;;;;;;;14.88;11.02;;;27.30;99.90;;;;;;4937824;29;20239;-91
2023/06/22 10:30:16;;;;;;;14.30;10.77;;;27.50;99.90;;;;;;4969312;28;20218;-91
2023/06/22 10:32:43;;;;;;;12.82;10.25;;;27.70;99.90;;;;;;4940540;29;20218;-92
2023/06/22 10:35:10;;;;;;;12.38;9.63;;;27.90;99.90;;;;;;4957750;29;20179;-92
2023/06/22 10:37:36;;;;;;;13.82;10.00;;;28.30;99.90;;;;;;4957760;29;20244;-90
2023/06/22 10:40:03;;;;;;;17.33;11.55;;;28.60;99.90;;;;;;4957312;29;20195;-90
2023/06/22 10:42:29;;;;;;;15.10;10.95;;;28.80;99.90;;;;;;4940442;29;20266;-86
2023/06/22 10:44:55;;;;;;;13.10;10.15;;;28.90;99.90;;;;;;4956877;29;20708;-92
2023/06/22 10:47:20;;;;;;;17.05;11.48;;;28.90;99.90;;;;;;4959348;29;20198;-93
2023/06/22 10:49:46;;;;;;;17.42;12.60;;;28.80;99.90;;;;;;4957962;29;20217;-92
2023/06/22 10:52:12;;;;;;;18.20;12.18;;;28.50;99.90;;;;;;4956665;29;20187;-92
2023/06/22 10:54:38;;;;;;;14.75;11.40;;;28.40;99.90;;;;;;4956267;29;20581;-94
2023/06/22 10:57:04;;;;;;;14.65;11.73;;;28.20;99.90;;;;;;4956019;29;20211;-92
2023/06/22 10:59:29;;;;;;;16.10;11.23;;;27.90;99.90;;;;;;4957586;29;20180;-93
2023/06/22 11:01:56;;;;;;;15.30;9.85;;;27.90;99.90;;;;;;4956894;29;20182;-94
2023/06/22 11:04:22;;;;;;;13.57;10.07;;;28.00;99.90;;;;;;4958629;29;20633;-93
2023/06/22 11:06:48;;;;;;;13.65;10.55;;;28.10;99.90;;;;;;4940394;29;20242;-93
2023/06/22 11:09:18;;;;;;;19.45;11.30;;;28.30;99.90;;;;;;4957258;29;20218;-94
2023/06/22 11:11:44;;;;;;;14.65;10.82;;;28.30;99.90;;;;;;4963659;29;20186;-92
2023/06/22 11:14:10;;;;;;;13.95;10.90;;;28.50;99.90;;;;;;4953610;29;20282;-92
2023/06/22 11:16:36;;;;;;;14.52;10.32;;;28.50;99.90;;;;;;4957516;29;20270;-92
2023/06/22 11:19:03;;;;;;;16.17;10.63;;;28.40;99.90;;;;;;4957586;29;20175;-92
2023/06/22 11:21:28;;;;;;;12.15;9.57;;;28.30;99.90;;;;;;4956196;29;20242;-92
2023/06/22 11:23:54;;;;;;;10.55;8.88;;;28.60;99.90;;;;;;4956556;29;20202;-92
2023/06/22 11:26:21;;;;;;;11.73;9.05;;;28.70;99.90;;;;;;4940580;29;20198;-90
2023/06/22 11:28:46;;;;;;;12.43;9.35;;;28.80;99.90;;;;;;4956285;29;20183;-92
2023/06/22 11:31:12;;;;;;;10.98;8.93;;;28.90;99.90;;;;;;4957062;29;20186;-92
2023/06/22 11:33:38;;;;;;;12.15;9.23;;;28.90;99.90;;;;;;4956225;29;20211;-90
2023/06/22 11:36:04;;;;;;;11.30;8.52;;;28.70;99.90;;;;;;4939617;29;20263;-92
2023/06/22 11:38:30;;;;;;;12.68;7.88;;;28.60;99.90;;;;;;4955551;29;20180;-89
2023/06/22 11:40:58;;;;;;;12.40;8.40;;;28.60;99.90;;;;;;4940027;29;20179;-91
2023/06/22 11:43:25;;;;;;;10.90;8.55;;;28.60;99.90;;;;;;4958212;29;20226;-92
2023/06/22 11:45:50;;;;;;;11.65;7.85;;;28.70;99.90;;;;;;4943481;29;20195;-91
2023/06/22 11:48:16;;;;;;;11.70;7.82;;;28.80;99.90;;;;;;4957066;29;20667;-92
2023/06/22 11:50:42;;;;;;;11.75;8.32;;;28.80;99.90;;;;;;4956582;29;20180;-93
2023/06/22 11:53:07;;;;;;;12.52;8.90;;;28.80;99.90;;;;;;4956817;29;20214;-94
2023/06/22 11:55:33;;;;;;;13.63;7.72;;;28.90;99.50;;;;;;4957307;29;20186;-91
2023/06/22 11:58:00;;;;;;;10.90;8.07;;;29.00;99.20;;;;;;4957524;29;20286;-92
2023/06/22 12:00:26;;;;;;;11.60;8.10;;;29.00;99.70;;;;;;4954928;29;20180;-91
2023/06/22 12:02:52;;;;;;;10.30;6.72;;;28.90;97.50;;;;;;4939097;29;20218;-92
2023/06/22 12:05:22;;;;;;;9.40;6.60;;;28.90;97.80;;;;;;4956323;29;20644;-92
2023/06/22 12:07:48;;;;;;;8.68;6.57;;;29.00;97.50;;;;;;4939338;29;20309;-93
2023/06/22 12:10:14;;;;;;;8.35;6.70;;;29.10;97.00;;;;;;4953165;28;20727;-91
2023/06/22 12:12:40;;;;;;;7.80;6.50;;;29.10;94.70;;;;;;4958550;28;20199;-91
2023/06/22 12:15:07;;;;;;;9.85;6.63;;;29.00;93.30;;;;;;4954482;28;20215;-93
2023/06/22 12:17:33;;;;;;;8.20;6.43;;;28.70;92.50;;;;;;4956653;29;20262;-92
2023/06/22 12:19:59;;;;;;;9.48;6.28;;;28.70;92.90;;;;;;4955185;29;20739;-92
2023/06/22 12:22:25;;;;;;;7.68;5.72;;;28.70;92.00;;;;;;4955870;29;20219;-91
2023/06/22 12:24:50;;;;;;;6.32;5.65;;;28.90;92.20;;;;;;4956887;29;20523;-91
2023/06/22 12:27:18;;;;;;;10.38;6.85;;;28.90;92.00;;;;;;4958861;28;20191;-90
2023/06/22 12:29:47;;;;;;;7.95;6.32;;;28.90;93.00;;;;;;4956231;29;20183;-89
2023/06/22 12:32:13;;;;;;;7.93;6.13;;;28.90;93.40;;;;;;4954815;29;20179;-92